This is the latest recevied weather packets stored in our database for station/object DL7HMX-13. If no packets are shown the sender has not sent any weather packets the latest 10 day(s).
| Time | Temp. | Humidity | Pressure | Rain* | Wind** | Luminosity | Snow |
|---|---|---|---|---|---|---|---|
| 1777574429 | 12.22° C | 31% | 1027.4 hPa | 0 mm | - | 0 W/m² | - |
| 1777573833 | 12.22° C | 31% | 1027.2 hPa | 0 mm | - | 1 W/m² | - |
| 1777573218 | 12.22° C | 31% | 1027.1 hPa | 0 mm | - | 4 W/m² | - |
| 1777572621 | 12.78° C | 30% | 1027 hPa | 0 mm | - | 8 W/m² | - |
| 1777572023 | 13.33° C | 29% | 1027 hPa | 0 mm | - | 13 W/m² | - |
| 1777571426 | 13.33° C | 29% | 1026.9 hPa | 0 mm | - | 20 W/m² | - |
| 1777570828 | 13.89° C | 29% | 1026.8 hPa | 0 mm | - | 28 W/m² | - |
| 1777570231 | 13.89° C | 28% | 1026.8 hPa | 0 mm | - | 39 W/m² | - |
| 1777569619 | 14.44° C | 27% | 1026.8 hPa | 0 mm | - | 52 W/m² | - |
| 1777569020 | 14.44° C | 28% | 1026.8 hPa | 0 mm | - | 66 W/m² | - |
| 1777568424 | 14.44° C | 27% | 1026.8 hPa | 0 mm | - | 82 W/m² | - |
| 1777567825 | 14.44° C | 27% | 1026.8 hPa | 0 mm | - | 100 W/m² | - |
| 1777567228 | 14.44° C | 26% | 1026.7 hPa | 0 mm | - | 122 W/m² | - |
| 1777566630 | 14.44° C | 27% | 1026.9 hPa | 0 mm | - | 142 W/m² | - |
| 1777566032 | 15° C | 26% | 1026.8 hPa | 0 mm | - | 163 W/m² | - |
| 1777565418 | 14.44° C | 26% | 1026.9 hPa | 0 mm | - | 186 W/m² | - |
| 1777564821 | 15° C | 27% | 1026.9 hPa | 0 mm | - | 211 W/m² | - |
| 1777564223 | 15° C | 27% | 1026.9 hPa | 0 mm | - | 239 W/m² | - |
| 1777563626 | 15° C | 28% | 1026.9 hPa | 0 mm | - | 265 W/m² | - |
| 1777563029 | 15° C | 27% | 1027 hPa | 0 mm | - | 292 W/m² | - |
| 1777562430 | 15° C | 27% | 1027 hPa | 0 mm | - | 317 W/m² | - |
| 1777561832 | 15° C | 27% | 1027 hPa | 0 mm | - | 343 W/m² | - |
| 1777561218 | 15° C | 26% | 1027.1 hPa | 0 mm | - | 368 W/m² | - |
| 1777560620 | 15° C | 28% | 1027.1 hPa | 0 mm | - | 395 W/m² | - |
| 1777560023 | 15° C | 28% | 1027.3 hPa | 0 mm | - | 425 W/m² | - |
* Rain latest hour (hover to see other rain measurements)
** Current wind speed in m/s (hover to see current wind gust speed)